sensor_id;sensor_type;location;lat;lon;timestamp;pressure;altitude;pressure_sealevel;temperature;humidity
72124;BME280;63818;37.134;-8.548;2023-09-19T00:02:32;101595.3;;;21.8;62.0
72124;BME280;63818;37.134;-8.548;2023-09-19T00:07:20;101580.9;;;21.8;62.1
72124;BME280;63818;37.134;-8.548;2023-09-19T00:12:06;101582.8;;;21.8;61.9
72124;BME280;63818;37.134;-8.548;2023-09-19T00:16:52;101583.2;;;21.8;62.1
72124;BME280;63818;37.134;-8.548;2023-09-19T00:21:38;101570.4;;;21.8;62.3
72124;BME280;63818;37.134;-8.548;2023-09-19T00:26:24;101581.0;;;21.8;62.9
72124;BME280;63818;37.134;-8.548;2023-09-19T00:31:10;101575.5;;;21.8;63.0
72124;BME280;63818;37.134;-8.548;2023-09-19T00:35:57;101572.0;;;21.8;61.9
72124;BME280;63818;37.134;-8.548;2023-09-19T00:40:45;101575.8;;;21.8;61.9
72124;BME280;63818;37.134;-8.548;2023-09-19T00:45:31;101572.7;;;21.8;62.0
72124;BME280;63818;37.134;-8.548;2023-09-19T00:50:19;101571.8;;;21.7;62.5
72124;BME280;63818;37.134;-8.548;2023-09-19T00:55:06;101579.9;;;21.7;62.7
72124;BME280;63818;37.134;-8.548;2023-09-19T00:59:54;101576.7;;;21.6;62.6
72124;BME280;63818;37.134;-8.548;2023-09-19T01:04:41;101568.9;;;21.6;63.0
72124;BME280;63818;37.134;-8.548;2023-09-19T01:09:30;101571.2;;;21.6;63.0
72124;BME280;63818;37.134;-8.548;2023-09-19T01:14:26;101570.4;;;21.6;63.4
72124;BME280;63818;37.134;-8.548;2023-09-19T01:20:03;101564.6;;;21.6;63.5
72124;BME280;63818;37.134;-8.548;2023-09-19T01:25:47;101567.9;;;21.5;63.8
72124;BME280;63818;37.134;-8.548;2023-09-19T01:30:40;101564.0;;;21.5;64.5
72124;BME280;63818;37.134;-8.548;2023-09-19T01:35:31;101564.0;;;21.5;64.9
72124;BME280;63818;37.134;-8.548;2023-09-19T01:40:19;101552.2;;;21.5;65.5
72124;BME280;63818;37.134;-8.548;2023-09-19T01:45:11;101551.0;;;21.5;65.5
72124;BME280;63818;37.134;-8.548;2023-09-19T01:50:02;101547.1;;;21.5;65.1
72124;BME280;63818;37.134;-8.548;2023-09-19T01:54:57;101537.2;;;21.4;65.3
72124;BME280;63818;37.134;-8.548;2023-09-19T01:59:48;101521.6;;;21.4;64.9
72124;BME280;63818;37.134;-8.548;2023-09-19T02:04:36;101515.3;;;21.4;64.0
72124;BME280;63818;37.134;-8.548;2023-09-19T02:09:22;101522.7;;;21.4;64.0
72124;BME280;63818;37.134;-8.548;2023-09-19T02:14:09;101507.4;;;21.3;63.8
72124;BME280;63818;37.134;-8.548;2023-09-19T02:18:55;101510.0;;;21.3;63.9
72124;BME280;63818;37.134;-8.548;2023-09-19T02:23:41;101512.0;;;21.3;63.7
72124;BME280;63818;37.134;-8.548;2023-09-19T02:28:27;101497.9;;;21.3;63.5
72124;BME280;63818;37.134;-8.548;2023-09-19T02:33:13;101506.8;;;21.2;63.6
72124;BME280;63818;37.134;-8.548;2023-09-19T02:38:01;101506.4;;;21.2;63.6
72124;BME280;63818;37.134;-8.548;2023-09-19T02:42:48;101503.2;;;21.2;63.8
72124;BME280;63818;37.134;-8.548;2023-09-19T02:47:35;101489.9;;;21.2;64.2
72124;BME280;63818;37.134;-8.548;2023-09-19T02:52:21;101483.7;;;21.2;63.7
72124;BME280;63818;37.134;-8.548;2023-09-19T02:57:10;101478.9;;;21.1;63.9
72124;BME280;63818;37.134;-8.548;2023-09-19T03:01:56;101475.6;;;21.1;64.3
72124;BME280;63818;37.134;-8.548;2023-09-19T03:06:42;101474.4;;;21.1;64.3
72124;BME280;63818;37.134;-8.548;2023-09-19T03:11:28;101477.7;;;21.2;63.9
72124;BME280;63818;37.134;-8.548;2023-09-19T03:16:14;101476.9;;;21.1;63.8
72124;BME280;63818;37.134;-8.548;2023-09-19T03:21:00;101469.4;;;21.1;64.2
72124;BME280;63818;37.134;-8.548;2023-09-19T03:25:47;101468.9;;;21.1;64.5
72124;BME280;63818;37.134;-8.548;2023-09-19T03:30:32;101459.2;;;21.1;64.8
72124;BME280;63818;37.134;-8.548;2023-09-19T03:35:19;101461.7;;;21.0;65.2
72124;BME280;63818;37.134;-8.548;2023-09-19T03:40:05;101448.6;;;21.0;64.0
72124;BME280;63818;37.134;-8.548;2023-09-19T03:44:50;101448.2;;;21.0;63.5
72124;BME280;63818;37.134;-8.548;2023-09-19T03:49:37;101442.6;;;21.0;63.6
72124;BME280;63818;37.134;-8.548;2023-09-19T03:54:23;101441.0;;;20.9;63.4
72124;BME280;63818;37.134;-8.548;2023-09-19T03:59:08;101445.1;;;20.9;63.2
72124;BME280;63818;37.134;-8.548;2023-09-19T04:03:55;101447.8;;;20.9;63.4
72124;BME280;63818;37.134;-8.548;2023-09-19T04:08:40;101448.0;;;20.8;63.7
72124;BME280;63818;37.134;-8.548;2023-09-19T04:13:26;101449.3;;;20.8;63.2
72124;BME280;63818;37.134;-8.548;2023-09-19T04:18:12;101446.0;;;20.9;63.0
72124;BME280;63818;37.134;-8.548;2023-09-19T04:22:58;101440.2;;;20.9;62.9
72124;BME280;63818;37.134;-8.548;2023-09-19T04:27:44;101445.0;;;21.0;62.8
72124;BME280;63818;37.134;-8.548;2023-09-19T04:32:30;101435.1;;;20.9;63.0
72124;BME280;63818;37.134;-8.548;2023-09-19T04:37:17;101435.5;;;20.8;63.0
72124;BME280;63818;37.134;-8.548;2023-09-19T04:42:03;101433.3;;;20.6;63.3
72124;BME280;63818;37.134;-8.548;2023-09-19T04:46:48;101437.5;;;20.6;63.5
72124;BME280;63818;37.134;-8.548;2023-09-19T04:51:34;101434.8;;;20.6;63.7
72124;BME280;63818;37.134;-8.548;2023-09-19T04:56:20;101443.0;;;20.6;63.5
72124;BME280;63818;37.134;-8.548;2023-09-19T05:01:06;101439.0;;;20.6;63.3
72124;BME280;63818;37.134;-8.548;2023-09-19T05:05:52;101439.2;;;20.5;63.3
72124;BME280;63818;37.134;-8.548;2023-09-19T05:10:38;101435.6;;;20.4;63.7
72124;BME280;63818;37.134;-8.548;2023-09-19T05:15:25;101439.6;;;20.5;63.4
72124;BME280;63818;37.134;-8.548;2023-09-19T05:20:13;101445.5;;;20.5;63.9
72124;BME280;63818;37.134;-8.548;2023-09-19T05:25:00;101444.8;;;20.5;63.7
72124;BME280;63818;37.134;-8.548;2023-09-19T05:29:46;101448.0;;;20.6;63.5
72124;BME280;63818;37.134;-8.548;2023-09-19T05:34:32;101449.0;;;20.5;63.4
72124;BME280;63818;37.134;-8.548;2023-09-19T05:39:18;101448.7;;;20.5;63.6
72124;BME280;63818;37.134;-8.548;2023-09-19T05:44:04;101447.5;;;20.5;62.8
72124;BME280;63818;37.134;-8.548;2023-09-19T05:48:50;101446.7;;;20.5;62.9
72124;BME280;63818;37.134;-8.548;2023-09-19T05:53:36;101449.5;;;20.5;62.5
72124;BME280;63818;37.134;-8.548;2023-09-19T05:58:21;101443.0;;;20.6;62.5
72124;BME280;63818;37.134;-8.548;2023-09-19T06:03:07;101448.9;;;20.6;63.5
72124;BME280;63818;37.134;-8.548;2023-09-19T06:07:53;101459.4;;;20.6;64.2
72124;BME280;63818;37.134;-8.548;2023-09-19T06:12:40;101467.5;;;20.5;64.7
72124;BME280;63818;37.134;-8.548;2023-09-19T06:17:26;101464.6;;;20.5;63.9
72124;BME280;63818;37.134;-8.548;2023-09-19T06:22:14;101469.3;;;20.5;64.2
72124;BME280;63818;37.134;-8.548;2023-09-19T06:27:00;101469.3;;;20.5;64.4
72124;BME280;63818;37.134;-8.548;2023-09-19T06:31:47;101468.9;;;20.5;64.5
72124;BME280;63818;37.134;-8.548;2023-09-19T06:36:33;101478.0;;;20.4;64.5
72124;BME280;63818;37.134;-8.548;2023-09-19T06:41:19;101475.9;;;20.3;64.4
72124;BME280;63818;37.134;-8.548;2023-09-19T06:46:05;101474.3;;;20.3;64.7
72124;BME280;63818;37.134;-8.548;2023-09-19T06:50:52;101480.0;;;20.2;64.9
72124;BME280;63818;37.134;-8.548;2023-09-19T06:55:38;101480.4;;;20.3;64.4
72124;BME280;63818;37.134;-8.548;2023-09-19T07:00:24;101480.6;;;20.2;64.6
72124;BME280;63818;37.134;-8.548;2023-09-19T07:05:11;101484.5;;;20.2;64.8
72124;BME280;63818;37.134;-8.548;2023-09-19T07:09:57;101478.2;;;20.2;64.3
72124;BME280;63818;37.134;-8.548;2023-09-19T07:14:45;101480.8;;;20.2;64.4
72124;BME280;63818;37.134;-8.548;2023-09-19T07:19:31;101490.4;;;20.4;64.8
72124;BME280;63818;37.134;-8.548;2023-09-19T07:24:17;101495.3;;;20.5;64.2
72124;BME280;63818;37.134;-8.548;2023-09-19T07:29:03;101500.5;;;20.5;64.3
72124;BME280;63818;37.134;-8.548;2023-09-19T07:33:49;101493.5;;;20.5;64.5
72124;BME280;63818;37.134;-8.548;2023-09-19T07:38:35;101498.3;;;20.6;64.9
72124;BME280;63818;37.134;-8.548;2023-09-19T07:43:21;101498.4;;;20.6;65.6
72124;BME280;63818;37.134;-8.548;2023-09-19T07:48:07;101507.4;;;20.6;64.8
72124;BME280;63818;37.134;-8.548;2023-09-19T07:52:53;101499.7;;;20.7;64.3
72124;BME280;63818;37.134;-8.548;2023-09-19T07:57:41;101504.2;;;20.7;63.9
72124;BME280;63818;37.134;-8.548;2023-09-19T08:02:27;101502.7;;;20.8;64.1
72124;BME280;63818;37.134;-8.548;2023-09-19T08:07:13;101495.0;;;20.9;64.3
72124;BME280;63818;37.134;-8.548;2023-09-19T08:12:00;101494.3;;;20.9;63.5
72124;BME280;63818;37.134;-8.548;2023-09-19T08:16:46;101497.9;;;20.9;63.2
72124;BME280;63818;37.134;-8.548;2023-09-19T08:21:32;101497.3;;;21.0;63.7
72124;BME280;63818;37.134;-8.548;2023-09-19T08:26:17;101497.8;;;21.0;63.9
72124;BME280;63818;37.134;-8.548;2023-09-19T08:31:05;101499.0;;;21.1;63.1
72124;BME280;63818;37.134;-8.548;2023-09-19T08:35:51;101499.9;;;21.1;61.9
72124;BME280;63818;37.134;-8.548;2023-09-19T08:40:39;101495.3;;;21.1;61.1
72124;BME280;63818;37.134;-8.548;2023-09-19T08:45:28;101490.3;;;21.2;61.4
72124;BME280;63818;37.134;-8.548;2023-09-19T08:50:19;101488.5;;;21.2;61.1
72124;BME280;63818;37.134;-8.548;2023-09-19T08:55:12;101487.4;;;21.3;61.5
72124;BME280;63818;37.134;-8.548;2023-09-19T08:59:58;101496.0;;;21.3;61.2
72124;BME280;63818;37.134;-8.548;2023-09-19T09:04:45;101498.0;;;21.3;61.3
72124;BME280;63818;37.134;-8.548;2023-09-19T09:09:33;101495.4;;;21.4;60.5
72124;BME280;63818;37.134;-8.548;2023-09-19T09:14:20;101485.3;;;21.5;60.7
72124;BME280;63818;37.134;-8.548;2023-09-19T09:19:07;101499.1;;;21.5;61.2
72124;BME280;63818;37.134;-8.548;2023-09-19T09:23:56;101489.8;;;21.6;61.0
72124;BME280;63818;37.134;-8.548;2023-09-19T09:28:46;101496.6;;;21.6;61.0
72124;BME280;63818;37.134;-8.548;2023-09-19T09:33:54;101492.0;;;21.7;60.1
72124;BME280;63818;37.134;-8.548;2023-09-19T09:38:48;101492.5;;;21.7;59.9
72124;BME280;63818;37.134;-8.548;2023-09-19T09:43:35;101489.8;;;21.8;59.7
72124;BME280;63818;37.134;-8.548;2023-09-19T09:48:27;101488.0;;;21.9;59.2
72124;BME280;63818;37.134;-8.548;2023-09-19T09:53:22;101486.2;;;21.9;58.8
72124;BME280;63818;37.134;-8.548;2023-09-19T09:58:18;101473.4;;;22.0;58.3
72124;BME280;63818;37.134;-8.548;2023-09-19T10:03:16;101474.5;;;21.9;58.9
72124;BME280;63818;37.134;-8.548;2023-09-19T10:08:12;101476.9;;;22.0;59.0
72124;BME280;63818;37.134;-8.548;2023-09-19T10:13:01;101469.9;;;22.0;58.6
72124;BME280;63818;37.134;-8.548;2023-09-19T10:17:47;101466.0;;;22.0;57.9
72124;BME280;63818;37.134;-8.548;2023-09-19T10:22:34;101468.4;;;22.0;57.8
72124;BME280;63818;37.134;-8.548;2023-09-19T10:27:30;101467.1;;;22.2;61.1
72124;BME280;63818;37.134;-8.548;2023-09-19T10:32:18;101469.4;;;22.2;61.0
72124;BME280;63818;37.134;-8.548;2023-09-19T10:37:07;101462.4;;;22.2;60.6
72124;BME280;63818;37.134;-8.548;2023-09-19T10:41:55;101464.8;;;22.2;60.8
72124;BME280;63818;37.134;-8.548;2023-09-19T10:46:51;101457.0;;;22.2;60.5
72124;BME280;63818;37.134;-8.548;2023-09-19T10:51:42;101451.2;;;22.3;60.0
72124;BME280;63818;37.134;-8.548;2023-09-19T10:56:34;101447.3;;;22.3;59.8
72124;BME280;63818;37.134;-8.548;2023-09-19T11:01:23;101442.2;;;22.3;59.0
72124;BME280;63818;37.134;-8.548;2023-09-19T11:06:14;101445.4;;;22.3;59.0
72124;BME280;63818;37.134;-8.548;2023-09-19T11:11:01;101433.3;;;22.3;58.6
72124;BME280;63818;37.134;-8.548;2023-09-19T11:16:05;101434.5;;;22.4;58.6
72124;BME280;63818;37.134;-8.548;2023-09-19T11:21:25;101433.0;;;22.4;58.7
72124;BME280;63818;37.134;-8.548;2023-09-19T11:26:42;101425.7;;;22.5;57.5
72124;BME280;63818;37.134;-8.548;2023-09-19T11:32:51;101413.6;;;22.5;57.0
72124;BME280;63818;37.134;-8.548;2023-09-19T11:38:03;101399.5;;;22.5;57.5
72124;BME280;63818;37.134;-8.548;2023-09-19T11:42:49;101395.0;;;22.6;56.0
72124;BME280;63818;37.134;-8.548;2023-09-19T11:47:35;101398.9;;;22.6;57.0
72124;BME280;63818;37.134;-8.548;2023-09-19T11:52:24;101384.8;;;22.6;55.7
72124;BME280;63818;37.134;-8.548;2023-09-19T11:57:11;101389.5;;;22.6;55.8
72124;BME280;63818;37.134;-8.548;2023-09-19T12:01:58;101395.8;;;22.7;55.1
72124;BME280;63818;37.134;-8.548;2023-09-19T12:06:57;101385.7;;;22.7;55.1
72124;BME280;63818;37.134;-8.548;2023-09-19T12:11:44;101385.0;;;22.8;55.9
72124;BME280;63818;37.134;-8.548;2023-09-19T12:16:30;101388.2;;;22.9;57.2
72124;BME280;63818;37.134;-8.548;2023-09-19T12:21:27;101383.5;;;22.9;57.4
72124;BME280;63818;37.134;-8.548;2023-09-19T12:26:13;101377.7;;;23.0;55.4
72124;BME280;63818;37.134;-8.548;2023-09-19T12:31:08;101372.6;;;22.9;55.1
72124;BME280;63818;37.134;-8.548;2023-09-19T12:35:54;101358.9;;;22.9;54.7
72124;BME280;63818;37.134;-8.548;2023-09-19T12:40:40;101346.8;;;23.0;52.3
72124;BME280;63818;37.134;-8.548;2023-09-19T12:45:27;101342.6;;;23.0;53.4
72124;BME280;63818;37.134;-8.548;2023-09-19T12:50:14;101334.8;;;23.1;53.7
72124;BME280;63818;37.134;-8.548;2023-09-19T12:55:03;101328.6;;;23.2;53.8
72124;BME280;63818;37.134;-8.548;2023-09-19T12:59:51;101326.7;;;23.2;54.3
72124;BME280;63818;37.134;-8.548;2023-09-19T13:04:38;101319.0;;;23.3;52.8
72124;BME280;63818;37.134;-8.548;2023-09-19T13:09:24;101320.9;;;23.4;52.8
72124;BME280;63818;37.134;-8.548;2023-09-19T13:14:20;101322.6;;;23.4;54.0
72124;BME280;63818;37.134;-8.548;2023-09-19T13:19:06;101310.5;;;23.5;54.0
72124;BME280;63818;37.134;-8.548;2023-09-19T13:23:54;101306.2;;;23.5;51.2
72124;BME280;63818;37.134;-8.548;2023-09-19T13:28:42;101300.8;;;23.6;51.7
72124;BME280;63818;37.134;-8.548;2023-09-19T13:33:28;101291.9;;;23.8;52.1
72124;BME280;63818;37.134;-8.548;2023-09-19T13:38:15;101292.7;;;23.8;52.4
72124;BME280;63818;37.134;-8.548;2023-09-19T13:43:01;101275.5;;;23.9;51.1
72124;BME280;63818;37.134;-8.548;2023-09-19T13:47:49;101270.8;;;23.9;51.0
72124;BME280;63818;37.134;-8.548;2023-09-19T13:52:35;101268.1;;;24.0;51.1
72124;BME280;63818;37.134;-8.548;2023-09-19T13:57:24;101265.0;;;24.1;51.3
72124;BME280;63818;37.134;-8.548;2023-09-19T14:02:10;101267.4;;;24.1;51.1
72124;BME280;63818;37.134;-8.548;2023-09-19T14:06:56;101250.5;;;24.2;51.1
72124;BME280;63818;37.134;-8.548;2023-09-19T14:11:43;101253.3;;;24.4;49.4
72124;BME280;63818;37.134;-8.548;2023-09-19T14:16:29;101234.9;;;24.5;48.5
72124;BME280;63818;37.134;-8.548;2023-09-19T14:21:24;101222.4;;;24.6;48.8
72124;BME280;63818;37.134;-8.548;2023-09-19T14:26:10;101216.5;;;24.7;48.0
72124;BME280;63818;37.134;-8.548;2023-09-19T14:30:56;101227.6;;;24.9;46.6
72124;BME280;63818;37.134;-8.548;2023-09-19T14:35:47;101221.3;;;25.0;46.5
72124;BME280;63818;37.134;-8.548;2023-09-19T14:40:33;101218.9;;;25.1;46.6
72124;BME280;63818;37.134;-8.548;2023-09-19T14:45:19;101209.5;;;25.2;45.7
72124;BME280;63818;37.134;-8.548;2023-09-19T14:50:06;101218.1;;;25.5;45.5
72124;BME280;63818;37.134;-8.548;2023-09-19T14:54:52;101214.5;;;25.6;44.6
72124;BME280;63818;37.134;-8.548;2023-09-19T14:59:42;101200.8;;;26.4;43.1
72124;BME280;63818;37.134;-8.548;2023-09-19T15:04:31;101198.9;;;28.0;39.1
72124;BME280;63818;37.134;-8.548;2023-09-19T15:09:18;101193.3;;;29.4;36.1
72124;BME280;63818;37.134;-8.548;2023-09-19T15:14:04;101176.8;;;29.7;35.3
72124;BME280;63818;37.134;-8.548;2023-09-19T15:18:51;101174.7;;;30.1;34.9
72124;BME280;63818;37.134;-8.548;2023-09-19T15:23:38;101177.7;;;30.2;34.0
72124;BME280;63818;37.134;-8.548;2023-09-19T15:28:32;101171.0;;;30.0;34.9
72124;BME280;63818;37.134;-8.548;2023-09-19T15:33:18;101200.8;;;29.9;34.4
72124;BME280;63818;37.134;-8.548;2023-09-19T15:38:04;101178.4;;;30.1;34.4
72124;BME280;63818;37.134;-8.548;2023-09-19T15:42:54;101177.3;;;29.8;34.2
72124;BME280;63818;37.134;-8.548;2023-09-19T15:47:40;101177.7;;;30.0;33.4
72124;BME280;63818;37.134;-8.548;2023-09-19T15:52:26;101181.2;;;29.9;33.3
72124;BME280;63818;37.134;-8.548;2023-09-19T15:57:11;101178.8;;;29.7;33.5
72124;BME280;63818;37.134;-8.548;2023-09-19T16:01:57;101174.4;;;29.7;33.7
72124;BME280;63818;37.134;-8.548;2023-09-19T16:06:45;101185.2;;;29.4;33.8
72124;BME280;63818;37.134;-8.548;2023-09-19T16:11:33;101173.3;;;29.0;34.9
72124;BME280;63818;37.134;-8.548;2023-09-19T16:16:20;101179.1;;;29.3;35.1
72124;BME280;63818;37.134;-8.548;2023-09-19T16:21:07;101193.8;;;28.8;35.2
72124;BME280;63818;37.134;-8.548;2023-09-19T16:26:02;101177.1;;;28.1;35.8
72124;BME280;63818;37.134;-8.548;2023-09-19T16:30:48;101184.5;;;28.2;35.9
72124;BME280;63818;37.134;-8.548;2023-09-19T16:35:38;101160.1;;;28.1;36.2
72124;BME280;63818;37.134;-8.548;2023-09-19T16:40:26;101180.6;;;27.8;36.9
72124;BME280;63818;37.134;-8.548;2023-09-19T16:45:15;101184.0;;;27.6;37.0
72124;BME280;63818;37.134;-8.548;2023-09-19T16:50:01;101181.4;;;27.5;37.6
72124;BME280;63818;37.134;-8.548;2023-09-19T16:54:46;101195.0;;;27.2;38.4
72124;BME280;63818;37.134;-8.548;2023-09-19T16:59:32;101181.7;;;27.2;39.0
72124;BME280;63818;37.134;-8.548;2023-09-19T17:04:19;101188.9;;;27.0;38.3
72124;BME280;63818;37.134;-8.548;2023-09-19T17:09:07;101190.2;;;26.9;38.4
72124;BME280;63818;37.134;-8.548;2023-09-19T17:13:53;101192.6;;;26.9;39.0
72124;BME280;63818;37.134;-8.548;2023-09-19T17:18:39;101193.5;;;26.8;39.2
72124;BME280;63818;37.134;-8.548;2023-09-19T17:23:33;101187.2;;;26.7;39.5
72124;BME280;63818;37.134;-8.548;2023-09-19T17:28:19;101179.5;;;26.5;38.7
72124;BME280;63818;37.134;-8.548;2023-09-19T17:33:06;101198.9;;;26.4;39.6
72124;BME280;63818;37.134;-8.548;2023-09-19T17:37:54;101186.0;;;26.2;39.8
72124;BME280;63818;37.134;-8.548;2023-09-19T17:42:40;101211.5;;;26.2;40.0
72124;BME280;63818;37.134;-8.548;2023-09-19T17:47:26;101201.4;;;26.1;40.1
72124;BME280;63818;37.134;-8.548;2023-09-19T17:52:19;101195.1;;;26.0;40.0
72124;BME280;63818;37.134;-8.548;2023-09-19T17:57:05;101208.2;;;25.8;40.6
72124;BME280;63818;37.134;-8.548;2023-09-19T18:01:52;101197.2;;;25.8;41.8
72124;BME280;63818;37.134;-8.548;2023-09-19T18:06:39;101203.9;;;25.7;41.6
72124;BME280;63818;37.134;-8.548;2023-09-19T18:11:25;101200.4;;;25.5;41.4
72124;BME280;63818;37.134;-8.548;2023-09-19T18:16:11;101192.9;;;25.3;42.1
72124;BME280;63818;37.134;-8.548;2023-09-19T18:21:04;101205.1;;;25.1;42.1
72124;BME280;63818;37.134;-8.548;2023-09-19T18:25:50;101216.9;;;25.0;43.4
72124;BME280;63818;37.134;-8.548;2023-09-19T18:30:36;101215.0;;;24.8;43.3
72124;BME280;63818;37.134;-8.548;2023-09-19T18:35:24;101222.8;;;24.7;43.6
72124;BME280;63818;37.134;-8.548;2023-09-19T18:40:18;101212.6;;;24.6;44.3
72124;BME280;63818;37.134;-8.548;2023-09-19T18:45:04;101212.9;;;24.5;44.4
72124;BME280;63818;37.134;-8.548;2023-09-19T18:49:50;101217.7;;;24.4;45.0
72124;BME280;63818;37.134;-8.548;2023-09-19T18:54:36;101217.6;;;24.3;45.6
72124;BME280;63818;37.134;-8.548;2023-09-19T18:59:22;101213.3;;;24.3;45.9
72124;BME280;63818;37.134;-8.548;2023-09-19T19:04:21;101216.8;;;24.2;46.0
72124;BME280;63818;37.134;-8.548;2023-09-19T19:09:08;101230.9;;;24.1;46.2
72124;BME280;63818;37.134;-8.548;2023-09-19T19:14:01;101241.8;;;24.0;46.8
72124;BME280;63818;37.134;-8.548;2023-09-19T19:18:47;101235.1;;;24.0;47.2
72124;BME280;63818;37.134;-8.548;2023-09-19T19:23:33;101245.3;;;23.9;47.2
72124;BME280;63818;37.134;-8.548;2023-09-19T19:28:25;101242.1;;;23.8;47.3
72124;BME280;63818;37.134;-8.548;2023-09-19T19:33:11;101249.9;;;23.7;47.6
72124;BME280;63818;37.134;-8.548;2023-09-19T19:38:06;101236.2;;;23.7;47.6
72124;BME280;63818;37.134;-8.548;2023-09-19T19:42:57;101246.3;;;23.6;47.7
72124;BME280;63818;37.134;-8.548;2023-09-19T19:47:43;101245.9;;;23.6;48.2
72124;BME280;63818;37.134;-8.548;2023-09-19T19:52:29;101270.9;;;23.5;48.1
72124;BME280;63818;37.134;-8.548;2023-09-19T19:57:16;101273.7;;;23.5;48.4
72124;BME280;63818;37.134;-8.548;2023-09-19T20:02:03;101276.7;;;23.4;48.7
72124;BME280;63818;37.134;-8.548;2023-09-19T20:06:50;101294.7;;;23.4;48.9
72124;BME280;63818;37.134;-8.548;2023-09-19T20:11:39;101290.0;;;23.4;49.3
72124;BME280;63818;37.134;-8.548;2023-09-19T20:16:28;101316.8;;;23.1;49.5
72124;BME280;63818;37.134;-8.548;2023-09-19T20:21:14;101298.1;;;23.3;49.8
72124;BME280;63818;37.134;-8.548;2023-09-19T20:26:02;101302.8;;;23.2;49.8
72124;BME280;63818;37.134;-8.548;2023-09-19T20:30:51;101306.7;;;23.2;50.0
72124;BME280;63818;37.134;-8.548;2023-09-19T20:35:38;101303.2;;;23.3;50.3
72124;BME280;63818;37.134;-8.548;2023-09-19T20:40:28;101306.4;;;23.3;50.1
72124;BME280;63818;37.134;-8.548;2023-09-19T20:45:14;101315.4;;;23.3;49.4
72124;BME280;63818;37.134;-8.548;2023-09-19T20:50:03;101312.5;;;23.1;49.1
72124;BME280;63818;37.134;-8.548;2023-09-19T20:54:50;101314.4;;;23.0;49.3
72124;BME280;63818;37.134;-8.548;2023-09-19T20:59:37;101307.0;;;23.1;48.8
72124;BME280;63818;37.134;-8.548;2023-09-19T21:04:23;101312.8;;;23.1;49.0
72124;BME280;63818;37.134;-8.548;2023-09-19T21:09:09;101312.5;;;23.0;49.0
72124;BME280;63818;37.134;-8.548;2023-09-19T21:13:57;101320.7;;;23.0;49.0
72124;BME280;63818;37.134;-8.548;2023-09-19T21:18:44;101318.3;;;23.0;49.3
72124;BME280;63818;37.134;-8.548;2023-09-19T21:23:31;101318.3;;;23.0;49.9
72124;BME280;63818;37.134;-8.548;2023-09-19T21:28:17;101312.8;;;23.0;49.4
72124;BME280;63818;37.134;-8.548;2023-09-19T21:33:10;101304.9;;;23.0;49.2
72124;BME280;63818;37.134;-8.548;2023-09-19T21:37:56;101310.5;;;23.0;49.1
72124;BME280;63818;37.134;-8.548;2023-09-19T21:42:42;101307.7;;;23.0;48.7
72124;BME280;63818;37.134;-8.548;2023-09-19T21:47:28;101315.6;;;23.0;49.0
72124;BME280;63818;37.134;-8.548;2023-09-19T21:52:15;101319.8;;;23.0;48.8
72124;BME280;63818;37.134;-8.548;2023-09-19T21:57:02;101312.0;;;23.0;48.8
72124;BME280;63818;37.134;-8.548;2023-09-19T22:01:51;101316.6;;;23.0;48.9
72124;BME280;63818;37.134;-8.548;2023-09-19T22:06:37;101319.0;;;23.0;48.7
72124;BME280;63818;37.134;-8.548;2023-09-19T22:11:23;101315.9;;;23.0;49.0
72124;BME280;63818;37.134;-8.548;2023-09-19T22:16:10;101312.8;;;23.0;48.9
72124;BME280;63818;37.134;-8.548;2023-09-19T22:20:57;101307.3;;;23.0;48.7
72124;BME280;63818;37.134;-8.548;2023-09-19T22:25:44;101311.2;;;23.0;48.7
72124;BME280;63818;37.134;-8.548;2023-09-19T22:30:35;101304.2;;;23.0;48.4
72124;BME280;63818;37.134;-8.548;2023-09-19T22:35:21;101309.3;;;23.0;48.6
72124;BME280;63818;37.134;-8.548;2023-09-19T22:40:08;101307.3;;;23.0;48.6
72124;BME280;63818;37.134;-8.548;2023-09-19T22:44:54;101309.7;;;23.0;48.5
72124;BME280;63818;37.134;-8.548;2023-09-19T22:49:47;101301.4;;;23.0;48.4
72124;BME280;63818;37.134;-8.548;2023-09-19T22:54:34;101308.5;;;23.0;48.5
72124;BME280;63818;37.134;-8.548;2023-09-19T22:59:19;101290.1;;;23.0;48.4
72124;BME280;63818;37.134;-8.548;2023-09-19T23:04:15;101286.5;;;23.0;48.3
72124;BME280;63818;37.134;-8.548;2023-09-19T23:09:01;101286.1;;;22.9;49.1
72124;BME280;63818;37.134;-8.548;2023-09-19T23:13:47;101280.9;;;22.9;49.0
72124;BME280;63818;37.134;-8.548;2023-09-19T23:18:33;101291.1;;;22.8;49.2
72124;BME280;63818;37.134;-8.548;2023-09-19T23:23:21;101275.8;;;22.8;49.1
72124;BME280;63818;37.134;-8.548;2023-09-19T23:28:06;101278.2;;;22.8;49.2
72124;BME280;63818;37.134;-8.548;2023-09-19T23:32:52;101278.5;;;22.8;49.8
72124;BME280;63818;37.134;-8.548;2023-09-19T23:37:39;101271.8;;;22.7;50.1
72124;BME280;63818;37.134;-8.548;2023-09-19T23:42:25;101283.2;;;22.8;50.7
72124;BME280;63818;37.134;-8.548;2023-09-19T23:47:14;101278.5;;;22.7;50.6
72124;BME280;63818;37.134;-8.548;2023-09-19T23:52:05;101266.3;;;22.7;51.3
72124;BME280;63818;37.134;-8.548;2023-09-19T23:56:55;101263.1;;;22.7;52.2
